sensor_id;sensor_type;location;lat;lon;timestamp;temperature;humidity
22950;DHT22;11641;51.018;4.474;2022-09-03T00:00:08;20.90;70.70
22950;DHT22;11641;51.018;4.474;2022-09-03T00:02:49;20.90;70.70
22950;DHT22;11641;51.018;4.474;2022-09-03T00:05:22;21.00;70.80
22950;DHT22;11641;51.018;4.474;2022-09-03T00:10:50;21.00;71.30
22950;DHT22;11641;51.018;4.474;2022-09-03T00:13:39;21.20;70.00
22950;DHT22;11641;51.018;4.474;2022-09-03T00:16:10;21.20;69.90
22950;DHT22;11641;51.018;4.474;2022-09-03T00:18:57;21.20;70.20
22950;DHT22;11641;51.018;4.474;2022-09-03T00:21:33;21.20;70.40
22950;DHT22;11641;51.018;4.474;2022-09-03T00:24:03;21.20;70.30
22950;DHT22;11641;51.018;4.474;2022-09-03T00:26:33;21.20;70.40
22950;DHT22;11641;51.018;4.474;2022-09-03T00:29:15;21.30;70.10
22950;DHT22;11641;51.018;4.474;2022-09-03T00:31:45;21.30;70.50
22950;DHT22;11641;51.018;4.474;2022-09-03T00:34:33;21.20;70.30
22950;DHT22;11641;51.018;4.474;2022-09-03T00:37:00;21.20;70.10
22950;DHT22;11641;51.018;4.474;2022-09-03T00:39:27;21.20;70.60
22950;DHT22;11641;51.018;4.474;2022-09-03T01:12:49;21.10;71.90
22950;DHT22;11641;51.018;4.474;2022-09-03T01:18:19;21.00;72.50
22950;DHT22;11641;51.018;4.474;2022-09-03T01:21:21;21.00;72.40
22950;DHT22;11641;51.018;4.474;2022-09-03T01:29:40;21.00;73.30
22950;DHT22;11641;51.018;4.474;2022-09-03T01:32:31;20.90;73.50
22950;DHT22;11641;51.018;4.474;2022-09-03T01:45:30;20.70;74.70
22950;DHT22;11641;51.018;4.474;2022-09-03T01:48:19;20.80;74.30
22950;DHT22;11641;51.018;4.474;2022-09-03T01:50:52;20.80;74.50
22950;DHT22;11641;51.018;4.474;2022-09-03T01:59:55;20.70;76.30
22950;DHT22;11641;51.018;4.474;2022-09-03T02:02:26;20.70;75.50
22950;DHT22;11641;51.018;4.474;2022-09-03T02:04:56;20.60;75.90
22950;DHT22;11641;51.018;4.474;2022-09-03T02:07:24;20.60;76.20
22950;DHT22;11641;51.018;4.474;2022-09-03T02:09:51;20.60;76.00
22950;DHT22;11641;51.018;4.474;2022-09-03T02:12:19;20.60;76.40
22950;DHT22;11641;51.018;4.474;2022-09-03T02:14:46;20.60;76.40
22950;DHT22;11641;51.018;4.474;2022-09-03T02:17:15;20.60;76.50
22950;DHT22;11641;51.018;4.474;2022-09-03T02:19:43;20.60;76.90
22950;DHT22;11641;51.018;4.474;2022-09-03T02:22:09;20.60;77.50
22950;DHT22;11641;51.018;4.474;2022-09-03T02:24:36;20.60;77.50
22950;DHT22;11641;51.018;4.474;2022-09-03T02:27:03;20.60;78.20
22950;DHT22;11641;51.018;4.474;2022-09-03T02:29:29;20.50;78.20
22950;DHT22;11641;51.018;4.474;2022-09-03T02:31:58;20.50;78.00
22950;DHT22;11641;51.018;4.474;2022-09-03T02:34:23;20.60;78.40
22950;DHT22;11641;51.018;4.474;2022-09-03T02:36:49;20.50;78.70
22950;DHT22;11641;51.018;4.474;2022-09-03T02:39:15;20.50;78.50
22950;DHT22;11641;51.018;4.474;2022-09-03T02:41:42;20.50;78.80
22950;DHT22;11641;51.018;4.474;2022-09-03T02:44:17;20.50;78.50
22950;DHT22;11641;51.018;4.474;2022-09-03T02:46:54;20.50;78.40
22950;DHT22;11641;51.018;4.474;2022-09-03T02:49:21;20.40;78.60
22950;DHT22;11641;51.018;4.474;2022-09-03T02:51:50;20.40;78.80
22950;DHT22;11641;51.018;4.474;2022-09-03T02:54:16;20.40;79.20
22950;DHT22;11641;51.018;4.474;2022-09-03T02:56:42;20.40;79.50
22950;DHT22;11641;51.018;4.474;2022-09-03T02:59:10;20.30;80.30
22950;DHT22;11641;51.018;4.474;2022-09-03T03:01:36;20.40;80.90
22950;DHT22;11641;51.018;4.474;2022-09-03T03:04:02;20.30;81.40
22950;DHT22;11641;51.018;4.474;2022-09-03T03:06:29;20.30;81.70
22950;DHT22;11641;51.018;4.474;2022-09-03T03:08:54;20.30;82.10
22950;DHT22;11641;51.018;4.474;2022-09-03T03:11:23;20.30;82.10
22950;DHT22;11641;51.018;4.474;2022-09-03T03:13:51;20.30;81.70
22950;DHT22;11641;51.018;4.474;2022-09-03T03:16:17;20.30;82.00
22950;DHT22;11641;51.018;4.474;2022-09-03T03:18:43;20.30;82.30
22950;DHT22;11641;51.018;4.474;2022-09-03T03:21:15;20.30;83.00
22950;DHT22;11641;51.018;4.474;2022-09-03T03:23:41;20.40;82.90
22950;DHT22;11641;51.018;4.474;2022-09-03T03:26:15;20.40;82.50
22950;DHT22;11641;51.018;4.474;2022-09-03T03:28:46;20.40;82.70
22950;DHT22;11641;51.018;4.474;2022-09-03T03:31:15;20.40;83.10
22950;DHT22;11641;51.018;4.474;2022-09-03T03:33:41;20.40;83.60
22950;DHT22;11641;51.018;4.474;2022-09-03T03:36:13;20.40;83.70
22950;DHT22;11641;51.018;4.474;2022-09-03T03:38:42;20.50;83.30
22950;DHT22;11641;51.018;4.474;2022-09-03T03:41:18;20.40;83.40
22950;DHT22;11641;51.018;4.474;2022-09-03T03:43:46;20.50;83.50
22950;DHT22;11641;51.018;4.474;2022-09-03T03:46:15;20.40;83.60
22950;DHT22;11641;51.018;4.474;2022-09-03T03:48:40;20.40;84.30
22950;DHT22;11641;51.018;4.474;2022-09-03T03:51:08;20.40;84.50
22950;DHT22;11641;51.018;4.474;2022-09-03T03:53:36;20.30;84.80
22950;DHT22;11641;51.018;4.474;2022-09-03T03:56:04;20.30;85.30
22950;DHT22;11641;51.018;4.474;2022-09-03T03:58:32;20.30;85.70
22950;DHT22;11641;51.018;4.474;2022-09-03T04:01:13;20.20;86.20
22950;DHT22;11641;51.018;4.474;2022-09-03T04:03:42;20.30;86.10
22950;DHT22;11641;51.018;4.474;2022-09-03T04:06:09;20.20;86.60
22950;DHT22;11641;51.018;4.474;2022-09-03T04:08:40;20.10;87.40
22950;DHT22;11641;51.018;4.474;2022-09-03T04:11:09;20.10;88.50
22950;DHT22;11641;51.018;4.474;2022-09-03T04:13:37;20.10;89.40
22950;DHT22;11641;51.018;4.474;2022-09-03T04:16:25;20.10;90.00
22950;DHT22;11641;51.018;4.474;2022-09-03T04:18:55;20.10;90.30
22950;DHT22;11641;51.018;4.474;2022-09-03T04:21:24;20.10;90.50
22950;DHT22;11641;51.018;4.474;2022-09-03T04:23:52;20.10;91.00
22950;DHT22;11641;51.018;4.474;2022-09-03T04:26:20;20.10;91.00
22950;DHT22;11641;51.018;4.474;2022-09-03T04:28:49;20.20;91.30
22950;DHT22;11641;51.018;4.474;2022-09-03T04:31:17;20.20;91.30
22950;DHT22;11641;51.018;4.474;2022-09-03T04:33:44;20.30;91.50
22950;DHT22;11641;51.018;4.474;2022-09-03T04:36:15;20.20;91.60
22950;DHT22;11641;51.018;4.474;2022-09-03T04:38:43;20.30;91.80
22950;DHT22;11641;51.018;4.474;2022-09-03T04:41:11;20.30;91.80
22950;DHT22;11641;51.018;4.474;2022-09-03T04:43:39;20.30;92.20
22950;DHT22;11641;51.018;4.474;2022-09-03T04:46:08;20.30;92.60
22950;DHT22;11641;51.018;4.474;2022-09-03T04:48:36;20.30;92.90
22950;DHT22;11641;51.018;4.474;2022-09-03T04:51:10;20.30;93.30
22950;DHT22;11641;51.018;4.474;2022-09-03T04:53:44;20.40;93.40
22950;DHT22;11641;51.018;4.474;2022-09-03T04:56:17;20.40;93.70
22950;DHT22;11641;51.018;4.474;2022-09-03T04:58:44;20.40;94.50
22950;DHT22;11641;51.018;4.474;2022-09-03T05:01:13;20.40;94.90
22950;DHT22;11641;51.018;4.474;2022-09-03T05:03:39;20.40;95.30
22950;DHT22;11641;51.018;4.474;2022-09-03T05:06:05;20.50;96.10
22950;DHT22;11641;51.018;4.474;2022-09-03T05:08:33;20.50;97.10
22950;DHT22;11641;51.018;4.474;2022-09-03T05:11:07;20.50;98.00
22950;DHT22;11641;51.018;4.474;2022-09-03T05:13:34;20.50;98.30
22950;DHT22;11641;51.018;4.474;2022-09-03T05:16:06;20.60;98.60
22950;DHT22;11641;51.018;4.474;2022-09-03T05:18:32;20.70;98.60
22950;DHT22;11641;51.018;4.474;2022-09-03T05:21:08;20.70;98.70
22950;DHT22;11641;51.018;4.474;2022-09-03T05:23:36;20.80;98.60
22950;DHT22;11641;51.018;4.474;2022-09-03T05:26:11;20.80;99.20
22950;DHT22;11641;51.018;4.474;2022-09-03T05:28:38;20.80;99.80
22950;DHT22;11641;51.018;4.474;2022-09-03T05:31:06;20.80;99.90
22950;DHT22;11641;51.018;4.474;2022-09-03T05:33:43;20.80;99.90
22950;DHT22;11641;51.018;4.474;2022-09-03T05:36:12;20.90;99.90
22950;DHT22;11641;51.018;4.474;2022-09-03T05:38:41;20.90;99.90
22950;DHT22;11641;51.018;4.474;2022-09-03T05:41:09;20.90;99.90
22950;DHT22;11641;51.018;4.474;2022-09-03T05:43:35;20.90;99.90
22950;DHT22;11641;51.018;4.474;2022-09-03T05:46:03;21.00;99.90
22950;DHT22;11641;51.018;4.474;2022-09-03T05:48:30;21.00;99.90
22950;DHT22;11641;51.018;4.474;2022-09-03T05:51:07;21.00;99.90
22950;DHT22;11641;51.018;4.474;2022-09-03T05:53:36;20.90;99.90
22950;DHT22;11641;51.018;4.474;2022-09-03T05:56:07;20.90;99.90
22950;DHT22;11641;51.018;4.474;2022-09-03T05:58:56;20.80;99.90
22950;DHT22;11641;51.018;4.474;2022-09-03T06:01:23;20.70;99.90
22950;DHT22;11641;51.018;4.474;2022-09-03T06:03:55;20.60;99.90
22950;DHT22;11641;51.018;4.474;2022-09-03T06:06:21;20.60;99.90
22950;DHT22;11641;51.018;4.474;2022-09-03T06:08:58;20.40;99.90
22950;DHT22;11641;51.018;4.474;2022-09-03T06:11:27;20.30;99.90
22950;DHT22;11641;51.018;4.474;2022-09-03T06:13:58;20.10;99.90
22950;DHT22;11641;51.018;4.474;2022-09-03T06:16:28;19.90;99.90
22950;DHT22;11641;51.018;4.474;2022-09-03T06:18:54;19.80;99.90
22950;DHT22;11641;51.018;4.474;2022-09-03T06:21:21;19.90;99.90
22950;DHT22;11641;51.018;4.474;2022-09-03T06:23:52;19.90;99.90
22950;DHT22;11641;51.018;4.474;2022-09-03T06:26:21;20.00;99.90
22950;DHT22;11641;51.018;4.474;2022-09-03T06:28:48;20.10;99.90
22950;DHT22;11641;51.018;4.474;2022-09-03T06:31:20;20.30;99.90
22950;DHT22;11641;51.018;4.474;2022-09-03T06:33:47;20.40;99.90
22950;DHT22;11641;51.018;4.474;2022-09-03T06:36:17;20.40;99.90
22950;DHT22;11641;51.018;4.474;2022-09-03T06:38:44;20.40;99.90
22950;DHT22;11641;51.018;4.474;2022-09-03T06:41:12;20.60;99.90
22950;DHT22;11641;51.018;4.474;2022-09-03T06:43:40;20.70;99.90
22950;DHT22;11641;51.018;4.474;2022-09-03T06:46:12;20.80;99.90
22950;DHT22;11641;51.018;4.474;2022-09-03T06:48:41;20.90;99.90
22950;DHT22;11641;51.018;4.474;2022-09-03T06:51:11;21.10;99.90
22950;DHT22;11641;51.018;4.474;2022-09-03T06:53:39;21.30;99.90
22950;DHT22;11641;51.018;4.474;2022-09-03T06:56:14;21.40;99.90
22950;DHT22;11641;51.018;4.474;2022-09-03T06:58:45;21.50;99.90
22950;DHT22;11641;51.018;4.474;2022-09-03T07:01:17;21.50;99.90
22950;DHT22;11641;51.018;4.474;2022-09-03T07:03:47;21.60;99.90
22950;DHT22;11641;51.018;4.474;2022-09-03T07:06:18;21.70;99.90
22950;DHT22;11641;51.018;4.474;2022-09-03T07:08:45;21.80;99.90
22950;DHT22;11641;51.018;4.474;2022-09-03T07:11:13;21.90;99.90
22950;DHT22;11641;51.018;4.474;2022-09-03T07:13:47;21.90;99.90
22950;DHT22;11641;51.018;4.474;2022-09-03T07:16:19;22.00;99.90
22950;DHT22;11641;51.018;4.474;2022-09-03T07:18:46;22.10;99.90
22950;DHT22;11641;51.018;4.474;2022-09-03T07:21:15;22.10;99.90
22950;DHT22;11641;51.018;4.474;2022-09-03T07:23:42;22.10;99.90
22950;DHT22;11641;51.018;4.474;2022-09-03T07:26:15;22.10;99.90
22950;DHT22;11641;51.018;4.474;2022-09-03T07:28:43;22.20;99.90
22950;DHT22;11641;51.018;4.474;2022-09-03T07:31:14;22.30;99.90
22950;DHT22;11641;51.018;4.474;2022-09-03T07:33:54;22.50;99.90
22950;DHT22;11641;51.018;4.474;2022-09-03T07:36:23;22.60;99.90
22950;DHT22;11641;51.018;4.474;2022-09-03T07:38:56;22.80;99.90
22950;DHT22;11641;51.018;4.474;2022-09-03T07:41:23;23.10;99.90
22950;DHT22;11641;51.018;4.474;2022-09-03T07:43:51;23.30;99.90
22950;DHT22;11641;51.018;4.474;2022-09-03T07:46:22;23.50;99.90
22950;DHT22;11641;51.018;4.474;2022-09-03T07:48:55;23.70;99.90
22950;DHT22;11641;51.018;4.474;2022-09-03T07:51:25;23.90;99.90
22950;DHT22;11641;51.018;4.474;2022-09-03T07:53:54;24.10;99.90
22950;DHT22;11641;51.018;4.474;2022-09-03T07:56:21;24.30;99.90
22950;DHT22;11641;51.018;4.474;2022-09-03T07:58:47;24.50;99.90
22950;DHT22;11641;51.018;4.474;2022-09-03T08:01:16;24.80;99.90
22950;DHT22;11641;51.018;4.474;2022-09-03T08:03:46;25.20;99.90
22950;DHT22;11641;51.018;4.474;2022-09-03T08:06:14;25.70;99.90
22950;DHT22;11641;51.018;4.474;2022-09-03T08:08:40;26.00;98.50
22950;DHT22;11641;51.018;4.474;2022-09-03T08:11:09;26.30;98.30
22950;DHT22;11641;51.018;4.474;2022-09-03T08:13:41;26.70;96.80
22950;DHT22;11641;51.018;4.474;2022-09-03T08:16:10;26.80;95.50
22950;DHT22;11641;51.018;4.474;2022-09-03T08:18:42;27.10;94.50
22950;DHT22;11641;51.018;4.474;2022-09-03T08:21:15;27.10;93.10
22950;DHT22;11641;51.018;4.474;2022-09-03T08:23:46;27.10;92.20
22950;DHT22;11641;51.018;4.474;2022-09-03T08:26:14;27.40;93.30
22950;DHT22;11641;51.018;4.474;2022-09-03T08:28:41;27.70;90.70
22950;DHT22;11641;51.018;4.474;2022-09-03T08:31:08;27.70;90.30
22950;DHT22;11641;51.018;4.474;2022-09-03T08:33:42;27.80;90.80
22950;DHT22;11641;51.018;4.474;2022-09-03T08:36:15;28.10;90.00
22950;DHT22;11641;51.018;4.474;2022-09-03T08:38:43;28.20;89.40
22950;DHT22;11641;51.018;4.474;2022-09-03T08:41:16;28.10;89.50
22950;DHT22;11641;51.018;4.474;2022-09-03T08:46:57;27.50;91.00
22950;DHT22;11641;51.018;4.474;2022-09-03T08:49:44;27.90;90.90
22950;DHT22;11641;51.018;4.474;2022-09-03T08:52:44;28.30;90.70
22950;DHT22;11641;51.018;4.474;2022-09-03T08:55:42;28.50;90.60
22950;DHT22;11641;51.018;4.474;2022-09-03T08:58:14;28.40;90.20
22950;DHT22;11641;51.018;4.474;2022-09-03T09:11:43;29.00;89.70
22950;DHT22;11641;51.018;4.474;2022-09-03T09:17:46;29.30;88.50
22950;DHT22;11641;51.018;4.474;2022-09-03T09:20:17;29.60;88.00
22950;DHT22;11641;51.018;4.474;2022-09-03T09:23:03;30.00;85.60
22950;DHT22;11641;51.018;4.474;2022-09-03T09:25:32;30.60;83.90
22950;DHT22;11641;51.018;4.474;2022-09-03T09:28:22;30.70;82.60
22950;DHT22;11641;51.018;4.474;2022-09-03T09:30:54;30.70;81.40
22950;DHT22;11641;51.018;4.474;2022-09-03T09:33:28;30.70;82.50
22950;DHT22;11641;51.018;4.474;2022-09-03T09:36:00;32.10;77.40
22950;DHT22;11641;51.018;4.474;2022-09-03T09:38:33;33.80;72.70
22950;DHT22;11641;51.018;4.474;2022-09-03T09:41:19;34.60;68.70
22950;DHT22;11641;51.018;4.474;2022-09-03T09:43:58;36.30;62.60
22950;DHT22;11641;51.018;4.474;2022-09-03T09:46:29;36.90;60.20
22950;DHT22;11641;51.018;4.474;2022-09-03T09:48:57;38.40;57.90
22950;DHT22;11641;51.018;4.474;2022-09-03T09:51:28;39.30;55.00
22950;DHT22;11641;51.018;4.474;2022-09-03T09:54:13;40.40;51.50
22950;DHT22;11641;51.018;4.474;2022-09-03T09:56:46;40.40;50.80
22950;DHT22;11641;51.018;4.474;2022-09-03T09:59:24;39.90;50.50
22950;DHT22;11641;51.018;4.474;2022-09-03T10:01:49;40.50;50.40
22950;DHT22;11641;51.018;4.474;2022-09-03T10:04:30;41.30;49.10
22950;DHT22;11641;51.018;4.474;2022-09-03T10:07:12;42.10;47.50
22950;DHT22;11641;51.018;4.474;2022-09-03T10:09:41;41.90;47.00
22950;DHT22;11641;51.018;4.474;2022-09-03T10:12:18;41.90;45.70
22950;DHT22;11641;51.018;4.474;2022-09-03T10:14:56;39.80;48.70
22950;DHT22;11641;51.018;4.474;2022-09-03T10:17:41;38.00;51.20
22950;DHT22;11641;51.018;4.474;2022-09-03T10:20:30;36.20;54.60
22950;DHT22;11641;51.018;4.474;2022-09-03T10:23:28;35.70;56.90
22950;DHT22;11641;51.018;4.474;2022-09-03T10:26:07;36.00;56.00
22950;DHT22;11641;51.018;4.474;2022-09-03T10:28:38;38.20;54.00
22950;DHT22;11641;51.018;4.474;2022-09-03T10:33:55;39.90;51.00
22950;DHT22;11641;51.018;4.474;2022-09-03T10:36:49;40.50;49.30
22950;DHT22;11641;51.018;4.474;2022-09-03T10:50:56;34.70;58.50
22950;DHT22;11641;51.018;4.474;2022-09-03T10:56:24;34.20;58.10
22950;DHT22;11641;51.018;4.474;2022-09-03T10:59:03;33.90;59.30
22950;DHT22;11641;51.018;4.474;2022-09-03T11:07:02;38.50;52.60
22950;DHT22;11641;51.018;4.474;2022-09-03T11:09:41;39.90;49.00
22950;DHT22;11641;51.018;4.474;2022-09-03T11:12:15;40.20;49.00
22950;DHT22;11641;51.018;4.474;2022-09-03T11:14:50;40.80;49.20
22950;DHT22;11641;51.018;4.474;2022-09-03T11:17:25;41.10;47.40
22950;DHT22;11641;51.018;4.474;2022-09-03T11:20:15;39.90;48.80
22950;DHT22;11641;51.018;4.474;2022-09-03T11:22:48;39.70;48.50
22950;DHT22;11641;51.018;4.474;2022-09-03T11:25:18;38.60;50.70
22950;DHT22;11641;51.018;4.474;2022-09-03T11:33:48;36.50;53.50
22950;DHT22;11641;51.018;4.474;2022-09-03T11:36:27;37.20;53.20
22950;DHT22;11641;51.018;4.474;2022-09-03T11:38:55;37.90;51.60
22950;DHT22;11641;51.018;4.474;2022-09-03T11:41:33;38.10;52.00
22950;DHT22;11641;51.018;4.474;2022-09-03T11:44:19;37.40;52.50
22950;DHT22;11641;51.018;4.474;2022-09-03T11:46:58;38.30;51.50
22950;DHT22;11641;51.018;4.474;2022-09-03T11:49:31;40.10;49.60
22950;DHT22;11641;51.018;4.474;2022-09-03T11:52:03;41.20;47.30
22950;DHT22;11641;51.018;4.474;2022-09-03T11:54:43;39.80;48.40
22950;DHT22;11641;51.018;4.474;2022-09-03T11:57:14;38.40;49.90
22950;DHT22;11641;51.018;4.474;2022-09-03T11:59:42;37.00;52.60
22950;DHT22;11641;51.018;4.474;2022-09-03T12:05:02;37.10;52.50
22950;DHT22;11641;51.018;4.474;2022-09-03T12:10:32;40.40;48.00
22950;DHT22;11641;51.018;4.474;2022-09-03T12:13:25;43.50;45.50
22950;DHT22;11641;51.018;4.474;2022-09-03T12:16:36;44.00;42.80
22950;DHT22;11641;51.018;4.474;2022-09-03T12:19:27;41.40;45.10
22950;DHT22;11641;51.018;4.474;2022-09-03T12:21:56;39.30;47.30
22950;DHT22;11641;51.018;4.474;2022-09-03T12:24:25;37.60;49.50
22950;DHT22;11641;51.018;4.474;2022-09-03T12:27:02;36.30;51.90
22950;DHT22;11641;51.018;4.474;2022-09-03T12:29:30;36.40;52.70
22950;DHT22;11641;51.018;4.474;2022-09-03T12:32:08;37.30;51.80
22950;DHT22;11641;51.018;4.474;2022-09-03T12:34:35;38.00;50.90
22950;DHT22;11641;51.018;4.474;2022-09-03T12:37:02;37.80;50.80
22950;DHT22;11641;51.018;4.474;2022-09-03T12:39:32;37.10;51.70
22950;DHT22;11641;51.018;4.474;2022-09-03T12:42:04;36.40;52.70
22950;DHT22;11641;51.018;4.474;2022-09-03T12:47:14;34.20;56.50
22950;DHT22;11641;51.018;4.474;2022-09-03T12:49:52;33.90;57.70
22950;DHT22;11641;51.018;4.474;2022-09-03T12:52:28;33.10;59.60
22950;DHT22;11641;51.018;4.474;2022-09-03T12:54:59;32.60;61.00
22950;DHT22;11641;51.018;4.474;2022-09-03T12:57:36;31.70;62.00
22950;DHT22;11641;51.018;4.474;2022-09-03T13:00:07;31.90;62.20
22950;DHT22;11641;51.018;4.474;2022-09-03T13:05:05;32.50;62.40
22950;DHT22;11641;51.018;4.474;2022-09-03T13:07:35;33.20;60.30
22950;DHT22;11641;51.018;4.474;2022-09-03T13:10:20;34.80;57.70
22950;DHT22;11641;51.018;4.474;2022-09-03T13:12:50;35.60;55.50
22950;DHT22;11641;51.018;4.474;2022-09-03T13:15:22;35.20;55.80
22950;DHT22;11641;51.018;4.474;2022-09-03T13:18:24;35.10;56.10
22950;DHT22;11641;51.018;4.474;2022-09-03T13:27:32;39.50;50.60
22950;DHT22;11641;51.018;4.474;2022-09-03T13:30:20;40.40;48.90
22950;DHT22;11641;51.018;4.474;2022-09-03T13:33:04;40.90;48.80
22950;DHT22;11641;51.018;4.474;2022-09-03T13:43:40;43.10;43.60
22950;DHT22;11641;51.018;4.474;2022-09-03T13:46:19;43.60;42.80
22950;DHT22;11641;51.018;4.474;2022-09-03T13:48:49;44.20;41.80
22950;DHT22;11641;51.018;4.474;2022-09-03T13:54:23;43.20;42.50
22950;DHT22;11641;51.018;4.474;2022-09-03T13:59:51;43.40;42.30
22950;DHT22;11641;51.018;4.474;2022-09-03T14:02:49;43.00;43.00
22950;DHT22;11641;51.018;4.474;2022-09-03T14:10:50;40.00;46.70
22950;DHT22;11641;51.018;4.474;2022-09-03T14:16:15;38.60;47.80
22950;DHT22;11641;51.018;4.474;2022-09-03T14:18:57;37.90;48.90
22950;DHT22;11641;51.018;4.474;2022-09-03T14:21:33;36.60;50.10
22950;DHT22;11641;51.018;4.474;2022-09-03T14:24:08;37.60;49.70
22950;DHT22;11641;51.018;4.474;2022-09-03T14:26:58;38.30;48.50
22950;DHT22;11641;51.018;4.474;2022-09-03T14:29:32;37.50;50.00
22950;DHT22;11641;51.018;4.474;2022-09-03T14:32:29;36.20;51.60
22950;DHT22;11641;51.018;4.474;2022-09-03T14:34:59;34.80;53.50
22950;DHT22;11641;51.018;4.474;2022-09-03T14:37:38;34.60;54.30
22950;DHT22;11641;51.018;4.474;2022-09-03T14:43:13;34.90;54.60
22950;DHT22;11641;51.018;4.474;2022-09-03T14:46:04;34.70;55.30
22950;DHT22;11641;51.018;4.474;2022-09-03T14:54:29;34.00;56.50
22950;DHT22;11641;51.018;4.474;2022-09-03T14:57:44;33.50;56.80
22950;DHT22;11641;51.018;4.474;2022-09-03T15:00:50;33.60;57.00
22950;DHT22;11641;51.018;4.474;2022-09-03T15:10:46;31.70;61.20
22950;DHT22;11641;51.018;4.474;2022-09-03T15:16:04;31.30;63.50
22950;DHT22;11641;51.018;4.474;2022-09-03T15:35:15;31.50;63.60
22950;DHT22;11641;51.018;4.474;2022-09-03T15:37:51;31.90;63.70
22950;DHT22;11641;51.018;4.474;2022-09-03T15:43:10;31.70;62.00
22950;DHT22;11641;51.018;4.474;2022-09-03T15:48:49;31.90;61.90
22950;DHT22;11641;51.018;4.474;2022-09-03T15:51:32;31.40;62.90
22950;DHT22;11641;51.018;4.474;2022-09-03T15:54:14;31.00;64.10
22950;DHT22;11641;51.018;4.474;2022-09-03T15:59:57;30.00;68.30
22950;DHT22;11641;51.018;4.474;2022-09-03T16:02:46;29.80;70.50
22950;DHT22;11641;51.018;4.474;2022-09-03T16:05:27;29.80;72.10
22950;DHT22;11641;51.018;4.474;2022-09-03T16:13:42;29.80;71.50
22950;DHT22;11641;51.018;4.474;2022-09-03T16:16:33;30.40;70.90
22950;DHT22;11641;51.018;4.474;2022-09-03T16:21:59;32.40;66.20
22950;DHT22;11641;51.018;4.474;2022-09-03T16:24:43;35.00;60.00
22950;DHT22;11641;51.018;4.474;2022-09-03T16:27:16;37.50;55.70
22950;DHT22;11641;51.018;4.474;2022-09-03T16:38:24;36.70;54.20
22950;DHT22;11641;51.018;4.474;2022-09-03T16:51:55;31.10;66.20
22950;DHT22;11641;51.018;4.474;2022-09-03T16:54:54;30.30;69.50
22950;DHT22;11641;51.018;4.474;2022-09-03T17:00:11;29.50;73.80
22950;DHT22;11641;51.018;4.474;2022-09-03T17:03:08;29.50;73.60
22950;DHT22;11641;51.018;4.474;2022-09-03T17:06:18;29.40;73.70
22950;DHT22;11641;51.018;4.474;2022-09-03T17:20:46;28.30;76.40
22950;DHT22;11641;51.018;4.474;2022-09-03T17:26:11;28.00;76.70
22950;DHT22;11641;51.018;4.474;2022-09-03T17:40:21;26.90;82.50
22950;DHT22;11641;51.018;4.474;2022-09-03T17:48:25;26.00;99.00
22950;DHT22;11641;51.018;4.474;2022-09-03T17:54:07;25.60;99.90
22950;DHT22;11641;51.018;4.474;2022-09-03T17:56:59;25.20;99.90
22950;DHT22;11641;51.018;4.474;2022-09-03T17:59:40;25.10;99.90
22950;DHT22;11641;51.018;4.474;2022-09-03T18:02:29;25.00;99.90
22950;DHT22;11641;51.018;4.474;2022-09-03T18:18:49;24.10;99.90
22950;DHT22;11641;51.018;4.474;2022-09-03T18:21:24;24.10;99.90
22950;DHT22;11641;51.018;4.474;2022-09-03T18:27:39;24.10;99.90
22950;DHT22;11641;51.018;4.474;2022-09-03T18:30:25;24.00;99.90
22950;DHT22;11641;51.018;4.474;2022-09-03T18:33:11;23.90;99.90
22950;DHT22;11641;51.018;4.474;2022-09-03T18:35:58;24.00;99.90
22950;DHT22;11641;51.018;4.474;2022-09-03T18:38:42;24.00;99.90
22950;DHT22;11641;51.018;4.474;2022-09-03T18:41:44;24.00;99.90
22950;DHT22;11641;51.018;4.474;2022-09-03T18:45:04;24.00;99.90
22950;DHT22;11641;51.018;4.474;2022-09-03T18:51:16;24.00;99.90
22950;DHT22;11641;51.018;4.474;2022-09-03T18:54:30;24.10;99.90
22950;DHT22;11641;51.018;4.474;2022-09-03T18:57:23;24.10;99.90
22950;DHT22;11641;51.018;4.474;2022-09-03T19:00:14;24.10;99.90
22950;DHT22;11641;51.018;4.474;2022-09-03T19:21:03;23.90;99.90
22950;DHT22;11641;51.018;4.474;2022-09-03T19:24:00;23.90;99.90
22950;DHT22;11641;51.018;4.474;2022-09-03T19:27:11;23.90;99.90
22950;DHT22;11641;51.018;4.474;2022-09-03T19:30:03;23.80;99.90
22950;DHT22;11641;51.018;4.474;2022-09-03T19:41:53;23.60;99.90
22950;DHT22;11641;51.018;4.474;2022-09-03T19:48:13;23.60;99.90
22950;DHT22;11641;51.018;4.474;2022-09-03T19:53:51;23.50;99.90
22950;DHT22;11641;51.018;4.474;2022-09-03T19:56:36;23.60;99.90
22950;DHT22;11641;51.018;4.474;2022-09-03T19:59:24;23.50;99.90
22950;DHT22;11641;51.018;4.474;2022-09-03T20:02:11;23.60;99.90
22950;DHT22;11641;51.018;4.474;2022-09-03T20:04:59;23.70;99.90
22950;DHT22;11641;51.018;4.474;2022-09-03T20:07:46;23.70;99.90
22950;DHT22;11641;51.018;4.474;2022-09-03T20:10:33;23.70;99.90
22950;DHT22;11641;51.018;4.474;2022-09-03T20:13:11;23.70;99.90
22950;DHT22;11641;51.018;4.474;2022-09-03T20:29:53;23.60;99.90
22950;DHT22;11641;51.018;4.474;2022-09-03T20:41:28;23.30;99.90
22950;DHT22;11641;51.018;4.474;2022-09-03T20:46:32;23.00;99.90
22950;DHT22;11641;51.018;4.474;2022-09-03T20:49:10;22.90;99.90
22950;DHT22;11641;51.018;4.474;2022-09-03T20:51:42;22.80;99.90
22950;DHT22;11641;51.018;4.474;2022-09-03T20:54:18;22.80;99.90
22950;DHT22;11641;51.018;4.474;2022-09-03T21:03:08;22.40;99.90
22950;DHT22;11641;51.018;4.474;2022-09-03T21:11:10;22.30;99.90
22950;DHT22;11641;51.018;4.474;2022-09-03T21:14:11;22.20;99.90
22950;DHT22;11641;51.018;4.474;2022-09-03T21:24:49;21.90;99.90
22950;DHT22;11641;51.018;4.474;2022-09-03T21:27:21;21.80;99.90
22950;DHT22;11641;51.018;4.474;2022-09-03T21:30:11;21.70;99.90
22950;DHT22;11641;51.018;4.474;2022-09-03T21:32:54;21.70;99.90
22950;DHT22;11641;51.018;4.474;2022-09-03T21:35:29;21.60;99.90
22950;DHT22;11641;51.018;4.474;2022-09-03T21:38:07;21.60;99.90
22950;DHT22;11641;51.018;4.474;2022-09-03T21:40:41;21.40;99.90
22950;DHT22;11641;51.018;4.474;2022-09-03T21:43:20;21.40;99.90
22950;DHT22;11641;51.018;4.474;2022-09-03T21:46:00;21.40;99.90
22950;DHT22;11641;51.018;4.474;2022-09-03T21:48:37;21.40;99.90
22950;DHT22;11641;51.018;4.474;2022-09-03T21:51:22;21.40;99.90
22950;DHT22;11641;51.018;4.474;2022-09-03T22:02:31;21.20;99.90
22950;DHT22;11641;51.018;4.474;2022-09-03T22:04:59;21.20;99.90
22950;DHT22;11641;51.018;4.474;2022-09-03T22:15:48;21.20;99.90
22950;DHT22;11641;51.018;4.474;2022-09-03T22:18:29;21.10;99.90
22950;DHT22;11641;51.018;4.474;2022-09-03T22:21:22;21.10;99.90
22950;DHT22;11641;51.018;4.474;2022-09-03T22:32:08;20.90;99.90
22950;DHT22;11641;51.018;4.474;2022-09-03T22:35:09;20.80;99.90
22950;DHT22;11641;51.018;4.474;2022-09-03T22:46:03;20.70;99.90
22950;DHT22;11641;51.018;4.474;2022-09-03T22:55:16;20.60;99.90